createdAt,value
2023-03-13T00:01:38.182Z,10.50
2023-03-13T00:04:04.760Z,10.65
2023-03-13T00:06:34.718Z,9.75
2023-03-13T00:09:02.325Z,10.90
2023-03-13T00:11:29.501Z,10.75
2023-03-13T00:13:57.826Z,10.35
2023-03-13T00:16:24.518Z,10.40
2023-03-13T00:18:53.456Z,10.57
2023-03-13T00:21:22.376Z,11.60
2023-03-13T00:23:49.469Z,11.55
2023-03-13T00:26:18.731Z,11.75
2023-03-13T00:28:46.120Z,10.98
2023-03-13T00:31:15.123Z,12.57
2023-03-13T00:33:43.956Z,12.05
2023-03-13T00:36:13.188Z,11.68
2023-03-13T00:38:40.179Z,12.32
2023-03-13T00:41:15.397Z,11.88
2023-03-13T00:43:43.414Z,11.20
2023-03-13T00:46:13.229Z,11.85
2023-03-13T00:48:39.800Z,12.05
2023-03-13T00:51:07.628Z,11.40
2023-03-13T00:53:34.169Z,10.63
2023-03-13T00:56:09.125Z,10.35
2023-03-13T00:58:37.553Z,10.50
2023-03-13T01:01:16.418Z,10.63
2023-03-13T01:03:44.794Z,9.65
2023-03-13T01:06:14.439Z,11.32
2023-03-13T01:08:41.204Z,11.35
2023-03-13T01:11:13.039Z,10.40
2023-03-13T01:13:39.921Z,10.10
2023-03-13T01:16:12.428Z,9.77
2023-03-13T01:18:41.135Z,10.40
2023-03-13T01:21:09.261Z,11.05
2023-03-13T01:23:35.725Z,9.57
2023-03-13T01:26:05.400Z,10.43
2023-03-13T01:28:32.518Z,10.73
2023-03-13T01:30:59.600Z,8.88
2023-03-13T01:33:26.662Z,9.32
2023-03-13T01:35:53.216Z,8.65
2023-03-13T01:38:19.806Z,9.57
2023-03-13T01:40:48.397Z,9.02
2023-03-13T01:43:27.452Z,9.10
2023-03-13T01:46:04.596Z,8.55
2023-03-13T01:48:52.615Z,8.38
2023-03-13T01:54:07.677Z,7.82
2023-03-13T01:56:48.060Z,7.18
2023-03-13T01:59:21.269Z,7.77
2023-03-13T02:01:50.997Z,7.63
2023-03-13T02:04:20.684Z,7.47
2023-03-13T02:06:49.480Z,6.82
2023-03-13T02:09:20.865Z,8.52
2023-03-13T02:11:57.593Z,7.13
2023-03-13T02:14:27.957Z,7.72
2023-03-13T02:17:21.520Z,5.32
2023-03-13T02:19:54.273Z,7.88
2023-03-13T02:22:38.972Z,7.82
2023-03-13T02:25:33.688Z,7.30
2023-03-13T02:28:03.421Z,6.50
2023-03-13T02:30:33.450Z,6.93
2023-03-13T02:33:00.987Z,7.05
2023-03-13T02:35:28.233Z,6.68
2023-03-13T02:37:59.755Z,6.32
2023-03-13T02:40:30.165Z,6.63
2023-03-13T02:43:00.417Z,6.80
2023-03-13T02:45:27.901Z,6.57
2023-03-13T02:47:54.320Z,6.35
2023-03-13T02:50:21.186Z,6.72
2023-03-13T02:52:53.634Z,7.53
2023-03-13T02:55:28.456Z,6.55
2023-03-13T02:57:55.323Z,5.80
2023-03-13T03:00:26.532Z,5.63
2023-03-13T03:02:54.944Z,6.45
2023-03-13T03:05:22.242Z,6.30
2023-03-13T03:07:50.243Z,6.30
2023-03-13T03:10:18.235Z,6.10
2023-03-13T03:12:45.256Z,6.00
2023-03-13T03:15:12.278Z,6.38
2023-03-13T03:17:43.193Z,6.55
2023-03-13T03:20:12.108Z,6.13
2023-03-13T03:22:41.677Z,6.05
2023-03-13T03:25:09.273Z,5.55
2023-03-13T03:27:36.430Z,5.85
2023-03-13T03:30:06.344Z,5.47
2023-03-13T03:32:34.635Z,6.47
2023-03-13T03:35:01.102Z,6.22
2023-03-13T03:37:27.706Z,5.18
2023-03-13T03:39:54.430Z,6.03
2023-03-13T03:42:20.886Z,6.35
2023-03-13T03:44:47.329Z,5.20
2023-03-13T03:47:14.651Z,5.47
2023-03-13T03:49:44.772Z,6.53
2023-03-13T03:52:12.737Z,6.60
2023-03-13T03:54:41.742Z,5.55
2023-03-13T03:57:08.201Z,5.78
2023-03-13T03:59:36.260Z,6.30
2023-03-13T04:02:05.910Z,5.72
2023-03-13T04:04:33.320Z,5.85
2023-03-13T04:07:04.503Z,5.75
2023-03-13T04:09:32.581Z,6.57
2023-03-13T04:12:00.872Z,6.03
2023-03-13T04:14:27.875Z,6.70
2023-03-13T04:16:54.855Z,5.90
2023-03-13T04:19:21.377Z,5.43
2023-03-13T04:21:47.873Z,5.32
2023-03-13T04:24:17.380Z,6.95
2023-03-13T04:26:44.783Z,5.40
2023-03-13T04:29:11.473Z,5.63
2023-03-13T04:31:56.615Z,6.28
2023-03-13T04:34:33.113Z,6.65
2023-03-13T04:40:02.151Z,6.40
2023-03-13T04:42:50.054Z,5.57
2023-03-13T04:45:38.129Z,6.40
2023-03-13T04:48:28.738Z,5.25
2023-03-13T04:51:02.653Z,5.32
2023-03-13T04:53:47.316Z,7.28
2023-03-13T04:56:43.201Z,5.82
2023-03-13T04:59:29.472Z,6.43
2023-03-13T05:02:31.269Z,6.18
2023-03-13T05:05:15.934Z,5.68
2023-03-13T05:07:58.097Z,6.47
2023-03-13T05:10:46.977Z,6.00
2023-03-13T05:13:28.949Z,6.45
2023-03-13T05:16:01.453Z,6.75
2023-03-13T05:18:37.325Z,6.85
2023-03-13T05:21:08.724Z,8.32
2023-03-13T05:23:53.912Z,6.75
2023-03-13T05:26:38.520Z,6.35
2023-03-13T05:29:18.871Z,7.33
2023-03-13T05:32:08.944Z,6.57
2023-03-13T05:34:53.899Z,8.02
2023-03-13T05:37:43.442Z,7.10
2023-03-13T05:40:30.164Z,6.93
2023-03-13T05:43:29.960Z,7.07
2023-03-13T05:46:14.772Z,6.55
2023-03-13T05:48:53.015Z,7.82
2023-03-13T05:51:35.520Z,7.90
2023-03-13T05:54:15.782Z,7.40
2023-03-13T05:57:00.727Z,6.22
2023-03-13T05:59:39.752Z,7.22
2023-03-13T06:02:23.620Z,6.72
2023-03-13T06:04:50.770Z,7.63
2023-03-13T06:07:17.656Z,6.53
2023-03-13T06:09:44.085Z,6.45
2023-03-13T06:12:11.506Z,6.43
2023-03-13T06:14:38.424Z,7.05
2023-03-13T06:17:30.671Z,8.05
2023-03-13T06:19:57.056Z,6.97
2023-03-13T06:22:23.464Z,5.78
2023-03-13T06:24:49.879Z,6.28
2023-03-13T06:27:17.016Z,6.35
2023-03-13T06:29:43.695Z,8.07
2023-03-13T06:32:10.232Z,6.70
2023-03-13T06:34:37.455Z,7.18
2023-03-13T06:37:04.033Z,6.93
2023-03-13T06:39:30.481Z,6.72
2023-03-13T06:41:56.880Z,6.40
2023-03-13T06:44:23.316Z,6.95
2023-03-13T06:46:49.725Z,7.22
2023-03-13T06:49:16.123Z,7.30
2023-03-13T06:51:42.512Z,7.10
2023-03-13T06:54:08.900Z,8.07
2023-03-13T06:56:35.321Z,7.40
2023-03-13T06:59:01.726Z,6.90
2023-03-13T07:01:28.266Z,6.88
2023-03-13T07:03:54.880Z,6.30
2023-03-13T07:06:21.293Z,6.32
2023-03-13T07:08:47.731Z,7.47
2023-03-13T07:11:14.663Z,6.85
2023-03-13T07:13:41.512Z,7.15
2023-03-13T07:16:10.470Z,7.85
2023-03-13T07:18:39.275Z,7.50
2023-03-13T07:21:05.796Z,7.00
2023-03-13T07:23:34.187Z,8.07
2023-03-13T07:26:04.206Z,6.63
2023-03-13T07:28:31.591Z,7.72
2023-03-13T07:31:05.915Z,6.60
2023-03-13T07:33:32.775Z,8.07
2023-03-13T07:35:59.199Z,7.38
2023-03-13T07:38:25.678Z,6.80
2023-03-13T07:40:54.498Z,6.30
2023-03-13T07:43:21.904Z,6.43
2023-03-13T07:45:57.161Z,6.90
2023-03-13T07:48:25.600Z,7.57
2023-03-13T07:50:52.036Z,7.90
2023-03-13T07:53:21.690Z,7.10
2023-03-13T07:56:03.466Z,7.63
2023-03-13T07:58:34.959Z,6.07
2023-03-13T08:01:01.380Z,7.50
2023-03-13T08:03:28.746Z,6.55
2023-03-13T08:06:09.653Z,6.15
2023-03-13T08:08:36.765Z,6.38
2023-03-13T08:11:09.049Z,5.95
2023-03-13T08:13:36.127Z,7.47
2023-03-13T08:16:14.872Z,6.32
2023-03-13T08:18:43.818Z,6.05
2023-03-13T08:21:15.996Z,7.00
2023-03-13T08:23:42.766Z,6.25
2023-03-13T08:26:14.612Z,6.07
2023-03-13T08:28:42.155Z,6.57
2023-03-13T08:31:17.470Z,5.72
2023-03-13T08:33:45.156Z,5.75
2023-03-13T08:36:18.813Z,6.00
2023-03-13T08:38:46.786Z,5.13
2023-03-13T08:41:18.667Z,5.93
2023-03-13T08:43:46.209Z,5.68
2023-03-13T08:46:13.517Z,5.78
2023-03-13T08:48:40.296Z,4.78
2023-03-13T08:51:12.077Z,5.45
2023-03-13T08:53:39.623Z,5.15
2023-03-13T08:56:06.843Z,5.30
2023-03-13T08:58:33.339Z,5.75
2023-03-13T09:01:04.587Z,5.07
2023-03-13T09:03:31.533Z,4.95
2023-03-13T09:05:59.033Z,5.18
2023-03-13T09:08:26.185Z,5.30
2023-03-13T09:10:57.571Z,4.38
2023-03-13T09:13:24.965Z,4.88
2023-03-13T09:15:58.922Z,4.85
2023-03-13T09:18:25.514Z,4.95
2023-03-13T09:20:52.699Z,4.45
2023-03-13T09:23:19.978Z,4.75
2023-03-13T09:25:46.563Z,5.47
2023-03-13T09:28:13.142Z,4.22
2023-03-13T09:30:39.554Z,4.70
2023-03-13T09:33:05.996Z,4.15
2023-03-13T09:35:32.497Z,3.92
2023-03-13T09:37:58.977Z,4.32
2023-03-13T09:40:27.896Z,4.10
2023-03-13T09:43:00.117Z,4.40
2023-03-13T09:45:41.889Z,4.90
2023-03-13T09:48:18.379Z,4.05
2023-03-13T09:50:56.560Z,4.57
2023-03-13T09:53:55.188Z,4.10
2023-03-13T09:56:26.486Z,4.50
2023-03-13T09:59:02.191Z,3.95
2023-03-13T10:01:31.256Z,4.00
2023-03-13T10:04:30.808Z,4.28
2023-03-13T10:06:57.461Z,4.57
2023-03-13T10:09:31.182Z,4.38
2023-03-13T10:12:12.668Z,3.95
2023-03-13T10:15:02.353Z,4.40
2023-03-13T10:17:37.341Z,4.68
2023-03-13T10:20:23.845Z,3.63
2023-03-13T10:22:55.954Z,3.55
2023-03-13T10:25:29.794Z,3.80
2023-03-13T10:27:56.416Z,3.47
2023-03-13T10:30:29.118Z,3.80
2023-03-13T10:33:08.111Z,4.03
2023-03-13T10:35:38.550Z,3.42
2023-03-13T10:38:18.694Z,3.42
2023-03-13T10:40:57.855Z,3.20
2023-03-13T10:43:25.983Z,3.88
2023-03-13T10:45:53.097Z,2.72
2023-03-13T10:48:20.487Z,2.78
2023-03-13T10:50:49.478Z,3.20
2023-03-13T10:53:31.026Z,2.78
2023-03-13T10:56:15.432Z,3.22
2023-03-13T10:58:47.420Z,2.40
2023-03-13T11:01:17.110Z,2.88
2023-03-13T11:03:44.987Z,2.70
2023-03-13T11:06:28.078Z,2.70
2023-03-13T11:09:15.111Z,2.53
2023-03-13T11:11:47.398Z,2.70
2023-03-13T11:14:25.938Z,2.25
2023-03-13T11:16:58.251Z,2.30
2023-03-13T11:19:53.878Z,2.17
2023-03-13T11:22:30.377Z,3.17
2023-03-13T11:25:08.710Z,2.20
2023-03-13T11:27:44.052Z,2.47
2023-03-13T11:30:19.788Z,1.65
2023-03-13T11:33:00.381Z,2.40
2023-03-13T11:35:57.932Z,2.55
2023-03-13T11:38:38.913Z,2.28
2023-03-13T11:41:41.876Z,1.80
2023-03-13T11:44:20.085Z,1.67
2023-03-13T11:46:59.716Z,2.28
2023-03-13T11:49:40.841Z,1.55
2023-03-13T11:52:19.474Z,1.63
2023-03-13T11:55:23.372Z,1.52
2023-03-13T11:58:37.372Z,1.60
2023-03-13T12:01:11.413Z,1.45
2023-03-13T12:03:55.810Z,1.27
2023-03-13T12:06:32.756Z,1.60
2023-03-13T12:09:12.005Z,1.75
2023-03-13T12:11:48.250Z,1.30
2023-03-13T12:14:26.090Z,1.35
2023-03-13T12:16:59.123Z,1.23
2023-03-13T12:19:35.006Z,0.95
2023-03-13T12:22:14.141Z,1.08
2023-03-13T12:24:49.990Z,1.50
2023-03-13T12:27:33.432Z,1.30
2023-03-13T12:30:14.808Z,1.23
2023-03-13T12:33:03.322Z,1.10
2023-03-13T12:35:34.855Z,1.10
2023-03-13T12:38:17.515Z,1.20
2023-03-13T12:41:17.245Z,1.75
2023-03-13T12:44:00.665Z,1.15
2023-03-13T12:46:41.053Z,1.20
2023-03-13T12:49:31.316Z,1.50
2023-03-13T12:52:12.846Z,1.23
2023-03-13T12:54:54.308Z,1.23
2023-03-13T12:57:56.038Z,1.52
2023-03-13T13:00:26.766Z,1.30
2023-03-13T13:03:37.810Z,1.30
2023-03-13T13:06:16.039Z,1.42
2023-03-13T13:08:47.041Z,1.30
2023-03-13T13:11:45.119Z,1.30
2023-03-13T13:14:11.446Z,1.30
2023-03-13T13:16:43.668Z,1.38
2023-03-13T13:19:24.939Z,1.70
2023-03-13T13:22:28.916Z,1.10
2023-03-13T13:25:01.447Z,1.30
2023-03-13T13:27:45.795Z,1.48
2023-03-13T13:30:18.473Z,1.30
2023-03-13T13:32:52.665Z,1.73
2023-03-13T13:35:26.470Z,1.40
2023-03-13T13:37:53.957Z,1.15
2023-03-13T13:40:26.645Z,1.40
2023-03-13T13:42:58.545Z,1.30
2023-03-13T13:45:28.371Z,1.45
2023-03-13T13:48:30.155Z,1.10
2023-03-13T13:51:09.694Z,1.92
2023-03-13T13:53:54.178Z,1.42
2023-03-13T13:56:38.062Z,1.20
2023-03-13T13:59:23.990Z,1.10
2023-03-13T14:02:15.981Z,1.30
2023-03-13T14:04:55.055Z,1.50
2023-03-13T14:07:37.267Z,1.38
2023-03-13T14:10:30.254Z,1.45
2023-03-13T14:12:59.483Z,1.63
2023-03-13T14:15:27.031Z,1.67
2023-03-13T14:17:56.073Z,1.52
2023-03-13T14:20:31.787Z,1.40
2023-03-13T14:23:06.894Z,1.65
2023-03-13T14:25:48.862Z,1.88
2023-03-13T14:28:24.024Z,1.75
2023-03-13T14:30:53.163Z,1.58
2023-03-13T14:33:19.987Z,1.52
2023-03-13T14:35:47.609Z,1.88
2023-03-13T14:38:22.297Z,1.42
2023-03-13T14:40:51.139Z,1.25
2023-03-13T14:43:40.936Z,1.30
2023-03-13T14:46:30.469Z,1.70
2023-03-13T14:48:57.144Z,1.90
2023-03-13T14:51:26.494Z,1.60
2023-03-13T14:53:55.433Z,1.83
2023-03-13T14:56:42.164Z,1.40
2023-03-13T14:59:23.281Z,1.35
2023-03-13T15:02:00.602Z,1.52
2023-03-13T15:04:50.305Z,1.30
2023-03-13T15:07:17.247Z,1.42
2023-03-13T15:09:45.278Z,1.50
2023-03-13T15:12:18.157Z,1.27
2023-03-13T15:14:49.487Z,1.65
2023-03-13T15:17:17.493Z,1.40
2023-03-13T15:19:49.103Z,1.60
2023-03-13T15:22:16.460Z,1.63
2023-03-13T15:24:46.774Z,1.40
2023-03-13T15:27:22.981Z,1.40
2023-03-13T15:29:49.404Z,1.20
2023-03-13T15:32:21.492Z,1.40
2023-03-13T15:34:47.879Z,1.10
2023-03-13T15:37:14.431Z,1.13
2023-03-13T15:39:41.528Z,1.90
2023-03-13T15:42:08.033Z,1.30
2023-03-13T15:44:35.073Z,1.70
2023-03-13T15:47:01.511Z,1.65
2023-03-13T15:49:27.943Z,1.67
2023-03-13T15:51:55.801Z,1.88
2023-03-13T15:54:24.507Z,2.08
2023-03-13T15:56:52.758Z,2.22
2023-03-13T15:59:19.147Z,1.75
2023-03-13T16:01:45.562Z,1.90
2023-03-13T16:04:13.363Z,1.70
2023-03-13T16:06:39.847Z,2.20
2023-03-13T16:09:06.866Z,1.77
2023-03-13T16:11:34.097Z,1.50
2023-03-13T16:14:00.501Z,1.20
2023-03-13T16:16:29.542Z,1.50
2023-03-13T16:18:57.982Z,1.42
2023-03-13T16:21:33.238Z,1.45
2023-03-13T16:24:00.739Z,1.60
2023-03-13T16:26:30.428Z,1.55
2023-03-13T16:28:57.717Z,1.63
2023-03-13T16:31:30.448Z,1.55
2023-03-13T16:33:57.987Z,1.50
2023-03-13T16:36:31.082Z,1.50
2023-03-13T16:39:02.777Z,1.85
2023-03-13T16:41:29.529Z,1.25
2023-03-13T16:43:56.546Z,2.10
2023-03-13T16:46:27.163Z,1.58
2023-03-13T16:48:53.621Z,1.50
2023-03-13T16:51:22.883Z,1.50
2023-03-13T16:53:51.171Z,1.60
2023-03-13T16:56:39.448Z,1.70
2023-03-13T16:59:10.809Z,1.45
2023-03-13T17:01:37.741Z,1.67
2023-03-13T17:04:04.518Z,2.05
2023-03-13T17:06:36.877Z,1.88
2023-03-13T17:09:04.766Z,1.40
2023-03-13T17:11:31.215Z,1.45
2023-03-13T17:13:58.461Z,1.55
2023-03-13T17:16:32.045Z,1.67
2023-03-13T17:18:59.065Z,2.65
2023-03-13T17:21:28.883Z,1.75
2023-03-13T17:23:56.014Z,1.85
2023-03-13T17:26:36.508Z,1.80
2023-03-13T17:29:04.356Z,1.58
2023-03-13T17:31:37.006Z,1.67
2023-03-13T17:34:04.757Z,1.92
2023-03-13T17:36:31.273Z,1.90
2023-03-13T17:39:00.446Z,1.52
2023-03-13T17:41:29.681Z,1.48
2023-03-13T17:43:56.458Z,1.73
2023-03-13T17:46:25.623Z,1.77
2023-03-13T17:48:53.696Z,2.03
2023-03-13T17:51:25.213Z,2.10
2023-03-13T17:53:52.708Z,1.65
2023-03-13T17:56:24.569Z,1.58
2023-03-13T17:58:54.335Z,1.42
2023-03-13T18:01:36.732Z,1.88
2023-03-13T18:04:21.731Z,1.40
2023-03-13T18:06:50.414Z,1.65
2023-03-13T18:09:19.673Z,1.50
2023-03-13T18:11:46.888Z,1.73
2023-03-13T18:14:13.441Z,1.42
2023-03-13T18:16:48.425Z,1.35
2023-03-13T18:19:22.758Z,1.95
2023-03-13T18:21:52.084Z,1.77
2023-03-13T18:24:19.155Z,1.80
2023-03-13T18:26:47.753Z,3.50
2023-03-13T18:29:15.771Z,1.95
2023-03-13T18:31:43.681Z,2.10
2023-03-13T18:34:11.506Z,1.55
2023-03-13T18:36:38.608Z,1.92
2023-03-13T18:39:06.253Z,1.60
2023-03-13T18:41:33.510Z,1.50
2023-03-13T18:44:01.593Z,1.67
2023-03-13T18:46:31.546Z,2.30
2023-03-13T18:48:58.821Z,1.95
2023-03-13T18:51:25.870Z,1.65
2023-03-13T18:53:53.668Z,1.80
2023-03-13T18:56:28.897Z,1.67
2023-03-13T18:58:55.771Z,1.58
2023-03-13T19:01:25.619Z,1.75
2023-03-13T19:03:52.278Z,1.48
2023-03-13T19:06:27.769Z,1.90
2023-03-13T19:08:57.036Z,1.63
2023-03-13T19:11:26.144Z,1.75
2023-03-13T19:13:53.238Z,2.00
2023-03-13T19:16:27.276Z,2.15
2023-03-13T19:18:53.933Z,1.80
2023-03-13T19:21:25.567Z,1.73
2023-03-13T19:23:52.757Z,1.60
2023-03-13T19:26:36.327Z,1.60
2023-03-13T19:29:04.097Z,1.83
2023-03-13T19:31:30.533Z,2.40
2023-03-13T19:33:56.969Z,2.20
2023-03-13T19:36:24.660Z,1.40
2023-03-13T19:38:51.084Z,1.83
2023-03-13T19:41:17.538Z,1.70
2023-03-13T19:43:43.986Z,1.50
2023-03-13T19:46:20.734Z,2.53
2023-03-13T19:48:47.507Z,1.90
2023-03-13T19:51:15.010Z,2.00
2023-03-13T19:53:41.481Z,1.77
2023-03-13T19:56:21.336Z,2.03
2023-03-13T19:58:49.885Z,2.58
2023-03-13T20:01:18.012Z,2.30
2023-03-13T20:03:46.291Z,1.98
2023-03-13T20:06:19.005Z,2.80
2023-03-13T20:08:46.650Z,2.05
2023-03-13T20:11:14.621Z,2.72
2023-03-13T20:13:41.538Z,3.10
2023-03-13T20:16:10.739Z,2.70
2023-03-13T20:18:43.196Z,3.13
2023-03-13T20:21:10.300Z,2.95
2023-03-13T20:23:36.751Z,2.85
2023-03-13T20:26:08.320Z,2.25
2023-03-13T20:28:35.697Z,2.63
2023-03-13T20:31:02.418Z,3.10
2023-03-13T20:33:28.894Z,3.00
2023-03-13T20:36:07.504Z,3.40
2023-03-13T20:38:34.821Z,2.83
2023-03-13T20:41:01.916Z,2.75
2023-03-13T20:43:29.018Z,3.20
2023-03-13T20:45:55.828Z,2.75
2023-03-13T20:48:22.564Z,3.38
2023-03-13T20:50:53.216Z,3.58
2023-03-13T20:53:21.113Z,3.35
2023-03-13T20:55:48.347Z,2.90
2023-03-13T20:58:15.880Z,2.95
2023-03-13T21:00:43.660Z,3.33
2023-03-13T21:03:10.105Z,3.15
2023-03-13T21:05:40.312Z,3.35
2023-03-13T21:08:07.201Z,3.60
2023-03-13T21:10:38.276Z,2.97
2023-03-13T21:13:05.118Z,2.92
2023-03-13T21:15:32.076Z,3.05
2023-03-13T21:17:58.658Z,3.13
2023-03-13T21:20:25.490Z,2.90
2023-03-13T21:22:52.436Z,2.70
2023-03-13T21:25:19.638Z,2.95
2023-03-13T21:27:46.036Z,2.97
2023-03-13T21:30:15.174Z,2.67
2023-03-13T21:32:41.773Z,2.60
2023-03-13T21:35:09.182Z,2.47
2023-03-13T21:37:36.464Z,2.70
2023-03-13T21:40:04.496Z,2.83
2023-03-13T21:42:30.895Z,2.55
2023-03-13T21:44:57.289Z,2.05
2023-03-13T21:47:26.558Z,2.88
2023-03-13T21:49:54.720Z,2.42
2023-03-13T21:52:22.268Z,2.22
2023-03-13T21:54:49.081Z,2.20
2023-03-13T21:57:15.787Z,2.00
2023-03-13T21:59:42.624Z,2.28
2023-03-13T22:02:13.373Z,2.13
2023-03-13T22:04:40.039Z,1.92
2023-03-13T22:07:06.496Z,1.92
2023-03-13T22:09:33.256Z,2.20
2023-03-13T22:11:59.628Z,2.20
2023-03-13T22:14:27.929Z,2.00
2023-03-13T22:16:54.719Z,1.42
2023-03-13T22:19:21.135Z,1.92
2023-03-13T22:21:47.547Z,1.70
2023-03-13T22:24:13.944Z,1.83
2023-03-13T22:26:40.335Z,1.58
2023-03-13T22:29:06.749Z,1.80
2023-03-13T22:31:33.169Z,1.52
2023-03-13T22:33:59.568Z,1.80
2023-03-13T22:36:25.998Z,1.67
2023-03-13T22:38:52.442Z,1.55
2023-03-13T22:41:19.410Z,1.33
2023-03-13T22:43:45.882Z,1.27
2023-03-13T22:46:12.321Z,1.20
2023-03-13T22:48:39.655Z,1.45
2023-03-13T22:51:11.559Z,1.50
2023-03-13T22:53:40.436Z,1.15
2023-03-13T22:56:09.932Z,1.38
2023-03-13T22:58:37.343Z,1.45
2023-03-13T23:01:09.616Z,1.40
2023-03-13T23:03:36.231Z,1.40
2023-03-13T23:06:07.532Z,1.20
2023-03-13T23:08:34.875Z,1.23
2023-03-13T23:11:03.306Z,1.50
2023-03-13T23:13:30.296Z,1.33
2023-03-13T23:15:56.981Z,1.40
2023-03-13T23:18:27.599Z,1.00
2023-03-13T23:20:54.768Z,1.65
2023-03-13T23:23:21.532Z,1.17
2023-03-13T23:25:47.923Z,1.38
2023-03-13T23:28:14.340Z,1.20
2023-03-13T23:30:40.831Z,1.23
2023-03-13T23:33:07.221Z,1.52
2023-03-13T23:35:36.677Z,1.50
2023-03-13T23:38:03.108Z,1.83
2023-03-13T23:40:29.525Z,1.52
2023-03-13T23:42:55.904Z,2.22
2023-03-13T23:45:22.333Z,1.98
2023-03-13T23:47:48.787Z,1.30
2023-03-13T23:50:15.877Z,1.45
2023-03-13T23:52:42.500Z,1.27
2023-03-13T23:55:09.813Z,1.10
2023-03-13T23:57:37.612Z,1.33
